Terminal Aerodrome Forecast
Issued by NWS

Home | Current Version | Previous Version | Text Only | Print | Product List | Glossary On
Versions: 1 2 3 4 5 6 7 8 9 10 11 12 13 14 15 16 17 18 19 20 21 22 23 24 25 26 27 28
000
FTUS43 KOAX 271724
TAFSNY
TAF
KSNY 271724Z 2718/2818 15011KT P6SM FEW120
     FM272100 15014KT P6SM -SHRA VCTS BKN050CB
     FM280200 14013KT P6SM BKN050
     FM281000 27006KT P6SM SCT060=

USA.gov is the U.S. government's official web portal to all federal, state and local government web resources and services.